sensor_id;sensor_type;location;lat;lon;timestamp;temperature;humidity
4056;DHT22;2043;52.184;8.690;2023-05-29T00:01:38;12.70;98.00
4056;DHT22;2043;52.184;8.690;2023-05-29T00:04:06;12.80;97.80
4056;DHT22;2043;52.184;8.690;2023-05-29T00:06:33;12.80;97.50
4056;DHT22;2043;52.184;8.690;2023-05-29T00:09:00;12.80;97.50
4056;DHT22;2043;52.184;8.690;2023-05-29T00:11:27;12.80;97.30
4056;DHT22;2043;52.184;8.690;2023-05-29T00:13:54;12.70;97.50
4056;DHT22;2043;52.184;8.690;2023-05-29T00:16:21;12.70;97.20
4056;DHT22;2043;52.184;8.690;2023-05-29T00:18:48;12.60;97.10
4056;DHT22;2043;52.184;8.690;2023-05-29T00:21:15;12.60;97.50
4056;DHT22;2043;52.184;8.690;2023-05-29T00:23:42;12.30;97.70
4056;DHT22;2043;52.184;8.690;2023-05-29T00:26:11;12.30;97.90
4056;DHT22;2043;52.184;8.690;2023-05-29T00:28:39;12.20;98.10
4056;DHT22;2043;52.184;8.690;2023-05-29T00:31:06;12.20;98.40
4056;DHT22;2043;52.184;8.690;2023-05-29T00:33:33;12.10;98.60
4056;DHT22;2043;52.184;8.690;2023-05-29T00:35:59;12.10;98.30
4056;DHT22;2043;52.184;8.690;2023-05-29T00:38:26;12.00;98.70
4056;DHT22;2043;52.184;8.690;2023-05-29T00:40:53;12.10;98.60
4056;DHT22;2043;52.184;8.690;2023-05-29T00:43:20;11.90;98.60
4056;DHT22;2043;52.184;8.690;2023-05-29T00:45:47;11.90;99.00
4056;DHT22;2043;52.184;8.690;2023-05-29T00:48:14;12.00;98.80
4056;DHT22;2043;52.184;8.690;2023-05-29T00:50:43;11.90;98.60
4056;DHT22;2043;52.184;8.690;2023-05-29T00:53:10;11.90;99.10
4056;DHT22;2043;52.184;8.690;2023-05-29T00:55:37;11.90;98.90
4056;DHT22;2043;52.184;8.690;2023-05-29T00:58:04;11.80;98.90
4056;DHT22;2043;52.184;8.690;2023-05-29T01:00:31;11.80;99.10
4056;DHT22;2043;52.184;8.690;2023-05-29T01:03:00;11.80;99.00
4056;DHT22;2043;52.184;8.690;2023-05-29T01:05:34;11.80;98.90
4056;DHT22;2043;52.184;8.690;2023-05-29T01:08:02;11.70;99.10
4056;DHT22;2043;52.184;8.690;2023-05-29T01:10:29;11.70;99.20
4056;DHT22;2043;52.184;8.690;2023-05-29T01:13:04;11.70;98.90
4056;DHT22;2043;52.184;8.690;2023-05-29T01:18:23;11.70;98.90
4056;DHT22;2043;52.184;8.690;2023-05-29T01:26:46;11.70;98.70
4056;DHT22;2043;52.184;8.690;2023-05-29T01:29:15;11.60;98.70
4056;DHT22;2043;52.184;8.690;2023-05-29T01:31:45;11.60;98.90
4056;DHT22;2043;52.184;8.690;2023-05-29T01:34:13;11.50;98.90
4056;DHT22;2043;52.184;8.690;2023-05-29T01:36:39;11.50;98.90
4056;DHT22;2043;52.184;8.690;2023-05-29T01:39:07;11.40;98.90
4056;DHT22;2043;52.184;8.690;2023-05-29T01:41:34;11.40;99.20
4056;DHT22;2043;52.184;8.690;2023-05-29T01:44:04;11.40;99.30
4056;DHT22;2043;52.184;8.690;2023-05-29T01:46:37;11.50;98.90
4056;DHT22;2043;52.184;8.690;2023-05-29T01:49:05;11.40;99.10
4056;DHT22;2043;52.184;8.690;2023-05-29T01:51:32;11.30;99.20
4056;DHT22;2043;52.184;8.690;2023-05-29T01:53:59;11.30;99.20
4056;DHT22;2043;52.184;8.690;2023-05-29T01:56:29;11.30;99.20
4056;DHT22;2043;52.184;8.690;2023-05-29T01:58:58;11.20;99.50
4056;DHT22;2043;52.184;8.690;2023-05-29T02:01:25;11.20;99.60
4056;DHT22;2043;52.184;8.690;2023-05-29T02:03:53;11.30;99.40
4056;DHT22;2043;52.184;8.690;2023-05-29T02:06:20;11.20;99.30
4056;DHT22;2043;52.184;8.690;2023-05-29T02:08:47;11.20;99.20
4056;DHT22;2043;52.184;8.690;2023-05-29T02:11:14;11.20;99.20
4056;DHT22;2043;52.184;8.690;2023-05-29T02:13:41;11.20;99.30
4056;DHT22;2043;52.184;8.690;2023-05-29T02:16:08;11.10;99.30
4056;DHT22;2043;52.184;8.690;2023-05-29T02:18:36;11.10;99.40
4056;DHT22;2043;52.184;8.690;2023-05-29T02:21:03;11.10;99.50
4056;DHT22;2043;52.184;8.690;2023-05-29T02:23:30;11.10;99.50
4056;DHT22;2043;52.184;8.690;2023-05-29T02:25:57;11.10;99.40
4056;DHT22;2043;52.184;8.690;2023-05-29T02:28:23;11.10;99.40
4056;DHT22;2043;52.184;8.690;2023-05-29T02:30:50;11.10;99.40
4056;DHT22;2043;52.184;8.690;2023-05-29T02:33:17;11.10;99.40
4056;DHT22;2043;52.184;8.690;2023-05-29T02:35:44;11.00;99.70
4056;DHT22;2043;52.184;8.690;2023-05-29T02:38:11;11.00;99.90
4056;DHT22;2043;52.184;8.690;2023-05-29T02:40:38;10.90;99.90
4056;DHT22;2043;52.184;8.690;2023-05-29T02:43:05;11.00;99.90
4056;DHT22;2043;52.184;8.690;2023-05-29T02:45:32;10.90;99.90
4056;DHT22;2043;52.184;8.690;2023-05-29T02:47:59;10.90;99.90
4056;DHT22;2043;52.184;8.690;2023-05-29T02:50:26;10.90;99.90
4056;DHT22;2043;52.184;8.690;2023-05-29T02:52:54;10.90;99.90
4056;DHT22;2043;52.184;8.690;2023-05-29T02:57:48;10.90;99.90
4056;DHT22;2043;52.184;8.690;2023-05-29T03:00:19;10.90;99.90
4056;DHT22;2043;52.184;8.690;2023-05-29T03:02:47;10.80;99.90
4056;DHT22;2043;52.184;8.690;2023-05-29T03:05:14;10.90;99.90
4056;DHT22;2043;52.184;8.690;2023-05-29T03:07:41;10.80;99.90
4056;DHT22;2043;52.184;8.690;2023-05-29T03:10:08;10.80;99.90
4056;DHT22;2043;52.184;8.690;2023-05-29T03:12:36;10.70;99.90
4056;DHT22;2043;52.184;8.690;2023-05-29T03:15:03;10.70;99.90
4056;DHT22;2043;52.184;8.690;2023-05-29T03:17:30;10.80;99.90
4056;DHT22;2043;52.184;8.690;2023-05-29T03:19:57;10.80;99.90
4056;DHT22;2043;52.184;8.690;2023-05-29T03:22:24;10.80;99.90
4056;DHT22;2043;52.184;8.690;2023-05-29T03:24:51;10.70;99.90
4056;DHT22;2043;52.184;8.690;2023-05-29T03:27:18;10.70;99.90
4056;DHT22;2043;52.184;8.690;2023-05-29T03:29:44;10.70;99.90
4056;DHT22;2043;52.184;8.690;2023-05-29T03:37:06;10.60;99.90
4056;DHT22;2043;52.184;8.690;2023-05-29T03:39:33;10.60;99.90
4056;DHT22;2043;52.184;8.690;2023-05-29T03:42:00;10.60;99.90
4056;DHT22;2043;52.184;8.690;2023-05-29T03:46:54;10.70;99.90
4056;DHT22;2043;52.184;8.690;2023-05-29T03:49:21;10.60;99.90
4056;DHT22;2043;52.184;8.690;2023-05-29T03:51:49;10.50;99.90
4056;DHT22;2043;52.184;8.690;2023-05-29T03:54:21;10.60;99.90
4056;DHT22;2043;52.184;8.690;2023-05-29T03:56:48;10.60;99.90
4056;DHT22;2043;52.184;8.690;2023-05-29T04:01:42;10.60;99.90
4056;DHT22;2043;52.184;8.690;2023-05-29T04:09:05;10.60;99.70
4056;DHT22;2043;52.184;8.690;2023-05-29T04:14:02;10.50;99.90
4056;DHT22;2043;52.184;8.690;2023-05-29T04:18:56;10.70;99.10
4056;DHT22;2043;52.184;8.690;2023-05-29T04:21:23;10.60;99.10
4056;DHT22;2043;52.184;8.690;2023-05-29T04:23:51;10.70;99.20
4056;DHT22;2043;52.184;8.690;2023-05-29T04:31:16;10.70;98.60
4056;DHT22;2043;52.184;8.690;2023-05-29T04:41:10;10.70;98.60
4056;DHT22;2043;52.184;8.690;2023-05-29T04:43:37;10.70;98.50
4056;DHT22;2043;52.184;8.690;2023-05-29T04:48:31;10.60;98.00
4056;DHT22;2043;52.184;8.690;2023-05-29T04:53:26;10.70;98.30
4056;DHT22;2043;52.184;8.690;2023-05-29T05:00:48;10.80;97.60
4056;DHT22;2043;52.184;8.690;2023-05-29T05:03:15;10.70;97.60
4056;DHT22;2043;52.184;8.690;2023-05-29T05:15:34;10.90;97.30
4056;DHT22;2043;52.184;8.690;2023-05-29T05:25:23;10.90;96.70
4056;DHT22;2043;52.184;8.690;2023-05-29T05:30:17;11.20;95.80
4056;DHT22;2043;52.184;8.690;2023-05-29T05:35:13;11.30;95.30
4056;DHT22;2043;52.184;8.690;2023-05-29T05:37:40;11.30;95.50
4056;DHT22;2043;52.184;8.690;2023-05-29T05:40:08;11.30;95.50
4056;DHT22;2043;52.184;8.690;2023-05-29T05:45:02;11.60;94.50
4056;DHT22;2043;52.184;8.690;2023-05-29T05:47:30;11.70;94.40
4056;DHT22;2043;52.184;8.690;2023-05-29T05:52:24;11.80;93.30
4056;DHT22;2043;52.184;8.690;2023-05-29T05:57:19;11.80;93.20
4056;DHT22;2043;52.184;8.690;2023-05-29T06:02:14;11.80;93.70
4056;DHT22;2043;52.184;8.690;2023-05-29T06:04:41;12.00;93.10
4056;DHT22;2043;52.184;8.690;2023-05-29T06:09:36;12.00;93.00
4056;DHT22;2043;52.184;8.690;2023-05-29T06:12:03;12.10;92.40
4056;DHT22;2043;52.184;8.690;2023-05-29T06:14:31;12.10;92.10
4056;DHT22;2043;52.184;8.690;2023-05-29T06:16:57;12.10;92.60
4056;DHT22;2043;52.184;8.690;2023-05-29T06:19:24;12.10;92.20
4056;DHT22;2043;52.184;8.690;2023-05-29T06:24:18;12.10;92.00
4056;DHT22;2043;52.184;8.690;2023-05-29T06:26:45;12.10;91.60
4056;DHT22;2043;52.184;8.690;2023-05-29T06:29:12;12.30;91.90
4056;DHT22;2043;52.184;8.690;2023-05-29T06:34:06;12.60;90.70
4056;DHT22;2043;52.184;8.690;2023-05-29T06:36:33;12.70;90.40
4056;DHT22;2043;52.184;8.690;2023-05-29T06:39:01;12.90;90.20
4056;DHT22;2043;52.184;8.690;2023-05-29T06:43:55;13.10;89.00
4056;DHT22;2043;52.184;8.690;2023-05-29T06:48:49;13.20;89.10
4056;DHT22;2043;52.184;8.690;2023-05-29T06:56:10;13.50;87.90
4056;DHT22;2043;52.184;8.690;2023-05-29T07:03:34;13.50;87.30
4056;DHT22;2043;52.184;8.690;2023-05-29T07:06:03;13.60;87.60
4056;DHT22;2043;52.184;8.690;2023-05-29T07:13:25;14.20;85.80
4056;DHT22;2043;52.184;8.690;2023-05-29T07:18:19;14.50;85.60
4056;DHT22;2043;52.184;8.690;2023-05-29T07:20:46;14.60;84.50
4056;DHT22;2043;52.184;8.690;2023-05-29T07:23:13;14.40;84.80
4056;DHT22;2043;52.184;8.690;2023-05-29T07:30:48;14.70;84.50
4056;DHT22;2043;52.184;8.690;2023-05-29T07:33:15;14.60;84.80
4056;DHT22;2043;52.184;8.690;2023-05-29T07:38:09;15.10;83.60
4056;DHT22;2043;52.184;8.690;2023-05-29T07:43:05;15.10;83.40
4056;DHT22;2043;52.184;8.690;2023-05-29T07:47:59;15.30;83.20
4056;DHT22;2043;52.184;8.690;2023-05-29T07:50:26;15.20;83.20
4056;DHT22;2043;52.184;8.690;2023-05-29T07:52:54;15.30;83.60
4056;DHT22;2043;52.184;8.690;2023-05-29T07:55:22;15.30;83.40
4056;DHT22;2043;52.184;8.690;2023-05-29T07:57:49;15.60;82.50
4056;DHT22;2043;52.184;8.690;2023-05-29T08:00:16;16.00;82.70
4056;DHT22;2043;52.184;8.690;2023-05-29T08:02:43;16.10;82.10
4056;DHT22;2043;52.184;8.690;2023-05-29T08:05:10;16.10;80.60
4056;DHT22;2043;52.184;8.690;2023-05-29T08:07:37;16.40;80.60
4056;DHT22;2043;52.184;8.690;2023-05-29T08:10:04;16.30;80.30
4056;DHT22;2043;52.184;8.690;2023-05-29T08:12:34;16.20;80.60
4056;DHT22;2043;52.184;8.690;2023-05-29T08:15:03;16.30;80.80
4056;DHT22;2043;52.184;8.690;2023-05-29T08:17:30;16.10;81.10
4056;DHT22;2043;52.184;8.690;2023-05-29T08:19:56;15.80;81.80
4056;DHT22;2043;52.184;8.690;2023-05-29T08:22:28;15.80;82.40
4056;DHT22;2043;52.184;8.690;2023-05-29T08:24:56;15.90;82.20
4056;DHT22;2043;52.184;8.690;2023-05-29T08:27:23;16.00;82.00
4056;DHT22;2043;52.184;8.690;2023-05-29T08:29:50;16.20;81.30
4056;DHT22;2043;52.184;8.690;2023-05-29T08:32:17;16.10;80.80
4056;DHT22;2043;52.184;8.690;2023-05-29T08:34:44;16.20;80.60
4056;DHT22;2043;52.184;8.690;2023-05-29T08:37:13;16.40;80.50
4056;DHT22;2043;52.184;8.690;2023-05-29T08:42:13;16.50;80.30
4056;DHT22;2043;52.184;8.690;2023-05-29T08:44:46;16.80;80.20
4056;DHT22;2043;52.184;8.690;2023-05-29T08:47:16;16.90;79.70
4056;DHT22;2043;52.184;8.690;2023-05-29T08:49:52;17.00;79.00
4056;DHT22;2043;52.184;8.690;2023-05-29T08:52:22;17.10;79.00
4056;DHT22;2043;52.184;8.690;2023-05-29T08:54:49;17.30;79.50
4056;DHT22;2043;52.184;8.690;2023-05-29T08:57:17;17.40;77.80
4056;DHT22;2043;52.184;8.690;2023-05-29T08:59:44;17.50;77.90
4056;DHT22;2043;52.184;8.690;2023-05-29T09:02:12;17.40;77.70
4056;DHT22;2043;52.184;8.690;2023-05-29T09:04:41;17.30;78.20
4056;DHT22;2043;52.184;8.690;2023-05-29T09:07:08;17.60;78.20
4056;DHT22;2043;52.184;8.690;2023-05-29T09:09:35;17.80;77.10
4056;DHT22;2043;52.184;8.690;2023-05-29T09:12:03;18.10;77.20
4056;DHT22;2043;52.184;8.690;2023-05-29T09:14:41;18.30;76.20
4056;DHT22;2043;52.184;8.690;2023-05-29T09:17:10;18.60;75.90
4056;DHT22;2043;52.184;8.690;2023-05-29T09:19:38;18.60;76.10
4056;DHT22;2043;52.184;8.690;2023-05-29T09:22:13;18.20;75.90
4056;DHT22;2043;52.184;8.690;2023-05-29T09:24:46;18.20;76.50
4056;DHT22;2043;52.184;8.690;2023-05-29T09:27:14;18.20;76.50
4056;DHT22;2043;52.184;8.690;2023-05-29T09:29:41;18.40;76.10
4056;DHT22;2043;52.184;8.690;2023-05-29T09:32:10;18.70;75.70
4056;DHT22;2043;52.184;8.690;2023-05-29T09:34:37;18.90;75.40
4056;DHT22;2043;52.184;8.690;2023-05-29T09:37:05;19.00;74.30
4056;DHT22;2043;52.184;8.690;2023-05-29T09:42:12;19.00;76.10
4056;DHT22;2043;52.184;8.690;2023-05-29T09:44:43;19.40;75.40
4056;DHT22;2043;52.184;8.690;2023-05-29T09:47:16;19.30;74.70
4056;DHT22;2043;52.184;8.690;2023-05-29T09:49:44;19.20;74.30
4056;DHT22;2043;52.184;8.690;2023-05-29T09:52:13;19.20;75.10
4056;DHT22;2043;52.184;8.690;2023-05-29T09:54:44;19.50;73.60
4056;DHT22;2043;52.184;8.690;2023-05-29T09:57:14;19.50;73.80
4056;DHT22;2043;52.184;8.690;2023-05-29T09:59:46;19.50;73.90
4056;DHT22;2043;52.184;8.690;2023-05-29T10:02:18;19.50;73.40
4056;DHT22;2043;52.184;8.690;2023-05-29T10:04:46;19.50;73.60
4056;DHT22;2043;52.184;8.690;2023-05-29T10:07:27;19.70;74.20
4056;DHT22;2043;52.184;8.690;2023-05-29T10:10:00;19.70;73.90
4056;DHT22;2043;52.184;8.690;2023-05-29T10:12:29;19.80;72.60
4056;DHT22;2043;52.184;8.690;2023-05-29T10:14:59;19.80;72.50
4056;DHT22;2043;52.184;8.690;2023-05-29T10:17:34;19.80;72.50
4056;DHT22;2043;52.184;8.690;2023-05-29T10:20:05;19.80;71.90
4056;DHT22;2043;52.184;8.690;2023-05-29T10:22:33;19.80;72.20
4056;DHT22;2043;52.184;8.690;2023-05-29T10:25:02;20.10;72.80
4056;DHT22;2043;52.184;8.690;2023-05-29T10:27:30;20.00;73.70
4056;DHT22;2043;52.184;8.690;2023-05-29T10:30:06;20.00;73.40
4056;DHT22;2043;52.184;8.690;2023-05-29T10:32:43;19.90;73.40
4056;DHT22;2043;52.184;8.690;2023-05-29T10:35:23;20.00;72.90
4056;DHT22;2043;52.184;8.690;2023-05-29T10:37:56;20.10;72.50
4056;DHT22;2043;52.184;8.690;2023-05-29T10:40:26;20.30;72.60
4056;DHT22;2043;52.184;8.690;2023-05-29T10:42:53;20.60;71.90
4056;DHT22;2043;52.184;8.690;2023-05-29T10:50:42;21.20;73.20
4056;DHT22;2043;52.184;8.690;2023-05-29T10:53:10;21.10;72.70
4056;DHT22;2043;52.184;8.690;2023-05-29T10:55:38;21.10;72.80
4056;DHT22;2043;52.184;8.690;2023-05-29T10:58:13;20.90;71.40
4056;DHT22;2043;52.184;8.690;2023-05-29T11:00:41;20.90;71.30
4056;DHT22;2043;52.184;8.690;2023-05-29T11:03:25;20.80;73.20
4056;DHT22;2043;52.184;8.690;2023-05-29T11:05:56;20.80;72.30
4056;DHT22;2043;52.184;8.690;2023-05-29T11:11:03;21.30;72.50
4056;DHT22;2043;52.184;8.690;2023-05-29T11:13:36;21.50;71.00
4056;DHT22;2043;52.184;8.690;2023-05-29T11:16:10;21.60;71.70
4056;DHT22;2043;52.184;8.690;2023-05-29T11:18:45;21.60;71.90
4056;DHT22;2043;52.184;8.690;2023-05-29T11:24:28;20.90;73.20
4056;DHT22;2043;52.184;8.690;2023-05-29T11:26:57;21.40;72.30
4056;DHT22;2043;52.184;8.690;2023-05-29T11:29:28;21.40;72.70
4056;DHT22;2043;52.184;8.690;2023-05-29T11:31:58;21.60;71.90
4056;DHT22;2043;52.184;8.690;2023-05-29T11:34:30;22.00;71.40
4056;DHT22;2043;52.184;8.690;2023-05-29T11:37:01;22.00;71.30
4056;DHT22;2043;52.184;8.690;2023-05-29T11:39:29;21.80;71.00
4056;DHT22;2043;52.184;8.690;2023-05-29T11:41:58;21.70;71.10
4056;DHT22;2043;52.184;8.690;2023-05-29T11:44:26;21.50;71.20
4056;DHT22;2043;52.184;8.690;2023-05-29T11:47:04;21.00;73.40
4056;DHT22;2043;52.184;8.690;2023-05-29T11:49:35;21.40;73.50
4056;DHT22;2043;52.184;8.690;2023-05-29T11:52:13;22.20;71.70
4056;DHT22;2043;52.184;8.690;2023-05-29T11:54:43;21.50;71.90
4056;DHT22;2043;52.184;8.690;2023-05-29T11:57:21;21.00;72.60
4056;DHT22;2043;52.184;8.690;2023-05-29T11:59:51;21.70;72.30
4056;DHT22;2043;52.184;8.690;2023-05-29T12:02:25;21.80;72.40
4056;DHT22;2043;52.184;8.690;2023-05-29T12:05:04;22.30;71.30
4056;DHT22;2043;52.184;8.690;2023-05-29T12:07:33;22.40;71.40
4056;DHT22;2043;52.184;8.690;2023-05-29T12:10:14;22.80;70.20
4056;DHT22;2043;52.184;8.690;2023-05-29T12:12:42;22.70;69.10
4056;DHT22;2043;52.184;8.690;2023-05-29T12:15:09;22.70;70.10
4056;DHT22;2043;52.184;8.690;2023-05-29T12:17:37;22.50;70.50
4056;DHT22;2043;52.184;8.690;2023-05-29T12:20:05;22.70;69.40
4056;DHT22;2043;52.184;8.690;2023-05-29T12:22:37;22.80;69.10
4056;DHT22;2043;52.184;8.690;2023-05-29T12:27:35;23.20;68.80
4056;DHT22;2043;52.184;8.690;2023-05-29T12:32:39;22.70;68.60
4056;DHT22;2043;52.184;8.690;2023-05-29T12:35:15;22.10;70.70
4056;DHT22;2043;52.184;8.690;2023-05-29T12:37:43;22.40;70.20
4056;DHT22;2043;52.184;8.690;2023-05-29T12:40:15;22.70;70.10
4056;DHT22;2043;52.184;8.690;2023-05-29T12:42:43;22.60;69.50
4056;DHT22;2043;52.184;8.690;2023-05-29T12:45:10;22.50;70.30
4056;DHT22;2043;52.184;8.690;2023-05-29T12:47:38;22.70;69.60
4056;DHT22;2043;52.184;8.690;2023-05-29T12:52:56;21.50;70.40
4056;DHT22;2043;52.184;8.690;2023-05-29T12:55:23;21.90;70.80
4056;DHT22;2043;52.184;8.690;2023-05-29T12:57:50;21.80;69.70
4056;DHT22;2043;52.184;8.690;2023-05-29T13:00:17;21.70;69.90
4056;DHT22;2043;52.184;8.690;2023-05-29T13:02:46;21.70;69.30
4056;DHT22;2043;52.184;8.690;2023-05-29T13:05:14;21.60;69.50
4056;DHT22;2043;52.184;8.690;2023-05-29T13:07:42;21.90;69.30
4056;DHT22;2043;52.184;8.690;2023-05-29T13:10:09;22.20;69.30
4056;DHT22;2043;52.184;8.690;2023-05-29T13:12:36;22.40;67.90
4056;DHT22;2043;52.184;8.690;2023-05-29T13:15:04;21.90;68.00
4056;DHT22;2043;52.184;8.690;2023-05-29T13:17:32;21.90;68.20
4056;DHT22;2043;52.184;8.690;2023-05-29T13:20:00;21.90;68.10
4056;DHT22;2043;52.184;8.690;2023-05-29T13:22:27;21.80;68.60
4056;DHT22;2043;52.184;8.690;2023-05-29T13:24:58;22.10;68.30
4056;DHT22;2043;52.184;8.690;2023-05-29T13:27:26;21.90;66.70
4056;DHT22;2043;52.184;8.690;2023-05-29T13:29:54;21.90;67.00
4056;DHT22;2043;52.184;8.690;2023-05-29T13:32:21;21.90;66.20
4056;DHT22;2043;52.184;8.690;2023-05-29T13:34:48;22.00;65.50
4056;DHT22;2043;52.184;8.690;2023-05-29T13:37:15;22.00;65.30
4056;DHT22;2043;52.184;8.690;2023-05-29T13:39:42;21.90;63.30
4056;DHT22;2043;52.184;8.690;2023-05-29T13:42:09;21.70;64.80
4056;DHT22;2043;52.184;8.690;2023-05-29T13:44:36;21.50;65.40
4056;DHT22;2043;52.184;8.690;2023-05-29T13:47:04;21.90;65.50
4056;DHT22;2043;52.184;8.690;2023-05-29T13:49:31;21.80;65.10
4056;DHT22;2043;52.184;8.690;2023-05-29T13:51:58;21.70;65.20
4056;DHT22;2043;52.184;8.690;2023-05-29T13:54:25;21.80;66.50
4056;DHT22;2043;52.184;8.690;2023-05-29T13:56:54;22.00;64.30
4056;DHT22;2043;52.184;8.690;2023-05-29T13:59:21;21.80;64.00
4056;DHT22;2043;52.184;8.690;2023-05-29T14:01:47;21.60;64.60
4056;DHT22;2043;52.184;8.690;2023-05-29T14:04:15;22.10;63.40
4056;DHT22;2043;52.184;8.690;2023-05-29T14:06:42;22.30;63.10
4056;DHT22;2043;52.184;8.690;2023-05-29T14:09:08;22.20;63.40
4056;DHT22;2043;52.184;8.690;2023-05-29T14:11:39;22.10;64.20
4056;DHT22;2043;52.184;8.690;2023-05-29T14:14:06;21.80;62.70
4056;DHT22;2043;52.184;8.690;2023-05-29T14:16:33;21.70;62.80
4056;DHT22;2043;52.184;8.690;2023-05-29T14:19:01;21.60;62.30
4056;DHT22;2043;52.184;8.690;2023-05-29T14:21:28;21.60;62.40
4056;DHT22;2043;52.184;8.690;2023-05-29T14:23:55;21.60;62.90
4056;DHT22;2043;52.184;8.690;2023-05-29T14:26:22;21.90;63.40
4056;DHT22;2043;52.184;8.690;2023-05-29T14:28:49;22.00;62.80
4056;DHT22;2043;52.184;8.690;2023-05-29T14:31:22;21.80;63.00
4056;DHT22;2043;52.184;8.690;2023-05-29T14:33:49;21.80;64.00
4056;DHT22;2043;52.184;8.690;2023-05-29T14:36:16;22.20;63.70
4056;DHT22;2043;52.184;8.690;2023-05-29T14:38:42;22.30;63.30
4056;DHT22;2043;52.184;8.690;2023-05-29T14:41:11;21.90;63.90
4056;DHT22;2043;52.184;8.690;2023-05-29T14:43:38;22.10;64.70
4056;DHT22;2043;52.184;8.690;2023-05-29T14:46:05;22.10;63.00
4056;DHT22;2043;52.184;8.690;2023-05-29T14:48:32;21.80;62.40
4056;DHT22;2043;52.184;8.690;2023-05-29T14:50:59;21.80;62.60
4056;DHT22;2043;52.184;8.690;2023-05-29T14:53:26;21.70;62.90
4056;DHT22;2043;52.184;8.690;2023-05-29T14:55:53;21.80;63.20
4056;DHT22;2043;52.184;8.690;2023-05-29T14:58:23;21.80;63.00
4056;DHT22;2043;52.184;8.690;2023-05-29T15:00:49;21.60;63.20
4056;DHT22;2043;52.184;8.690;2023-05-29T15:03:16;21.90;63.90
4056;DHT22;2043;52.184;8.690;2023-05-29T15:05:43;21.90;63.00
4056;DHT22;2043;52.184;8.690;2023-05-29T15:08:10;22.00;64.00
4056;DHT22;2043;52.184;8.690;2023-05-29T15:10:37;22.00;64.40
4056;DHT22;2043;52.184;8.690;2023-05-29T15:13:03;22.00;64.30
4056;DHT22;2043;52.184;8.690;2023-05-29T15:15:33;21.90;64.70
4056;DHT22;2043;52.184;8.690;2023-05-29T15:18:13;21.90;64.20
4056;DHT22;2043;52.184;8.690;2023-05-29T15:20:40;21.70;63.00
4056;DHT22;2043;52.184;8.690;2023-05-29T15:23:07;21.60;62.50
4056;DHT22;2043;52.184;8.690;2023-05-29T15:25:34;21.20;62.90
4056;DHT22;2043;52.184;8.690;2023-05-29T15:28:01;21.20;63.10
4056;DHT22;2043;52.184;8.690;2023-05-29T15:30:29;21.30;61.80
4056;DHT22;2043;52.184;8.690;2023-05-29T15:32:56;21.20;61.80
4056;DHT22;2043;52.184;8.690;2023-05-29T15:35:23;21.20;61.70
4056;DHT22;2043;52.184;8.690;2023-05-29T15:37:51;21.10;61.90
4056;DHT22;2043;52.184;8.690;2023-05-29T15:40:18;21.20;62.00
4056;DHT22;2043;52.184;8.690;2023-05-29T15:42:44;21.20;62.50
4056;DHT22;2043;52.184;8.690;2023-05-29T15:45:12;21.50;62.50
4056;DHT22;2043;52.184;8.690;2023-05-29T15:47:41;21.30;63.80
4056;DHT22;2043;52.184;8.690;2023-05-29T15:50:08;21.20;63.80
4056;DHT22;2043;52.184;8.690;2023-05-29T15:52:35;20.90;64.90
4056;DHT22;2043;52.184;8.690;2023-05-29T15:55:19;20.90;64.90
4056;DHT22;2043;52.184;8.690;2023-05-29T15:57:46;20.90;66.00
4056;DHT22;2043;52.184;8.690;2023-05-29T16:00:15;20.90;64.70
4056;DHT22;2043;52.184;8.690;2023-05-29T16:02:42;20.90;64.60
4056;DHT22;2043;52.184;8.690;2023-05-29T16:05:09;20.80;64.90
4056;DHT22;2043;52.184;8.690;2023-05-29T16:07:37;20.80;64.90
4056;DHT22;2043;52.184;8.690;2023-05-29T16:10:04;20.70;64.50
4056;DHT22;2043;52.184;8.690;2023-05-29T16:12:31;20.50;64.40
4056;DHT22;2043;52.184;8.690;2023-05-29T16:14:58;20.50;63.70
4056;DHT22;2043;52.184;8.690;2023-05-29T16:17:26;20.50;63.80
4056;DHT22;2043;52.184;8.690;2023-05-29T16:19:53;20.50;63.60
4056;DHT22;2043;52.184;8.690;2023-05-29T16:22:23;20.40;63.40
4056;DHT22;2043;52.184;8.690;2023-05-29T16:25:07;20.30;63.20
4056;DHT22;2043;52.184;8.690;2023-05-29T16:27:35;20.20;63.10
4056;DHT22;2043;52.184;8.690;2023-05-29T16:30:03;20.10;64.70
4056;DHT22;2043;52.184;8.690;2023-05-29T16:32:29;20.00;64.60
4056;DHT22;2043;52.184;8.690;2023-05-29T16:34:57;20.10;65.40
4056;DHT22;2043;52.184;8.690;2023-05-29T16:37:25;20.00;65.60
4056;DHT22;2043;52.184;8.690;2023-05-29T16:39:52;19.90;66.00
4056;DHT22;2043;52.184;8.690;2023-05-29T16:42:19;19.80;65.60
4056;DHT22;2043;52.184;8.690;2023-05-29T16:44:46;19.70;65.70
4056;DHT22;2043;52.184;8.690;2023-05-29T16:47:14;20.00;65.60
4056;DHT22;2043;52.184;8.690;2023-05-29T16:49:41;20.20;65.30
4056;DHT22;2043;52.184;8.690;2023-05-29T16:52:09;20.10;64.50
4056;DHT22;2043;52.184;8.690;2023-05-29T16:54:36;19.80;65.60
4056;DHT22;2043;52.184;8.690;2023-05-29T16:57:07;19.70;67.00
4056;DHT22;2043;52.184;8.690;2023-05-29T16:59:36;19.70;67.10
4056;DHT22;2043;52.184;8.690;2023-05-29T17:02:04;19.70;67.60
4056;DHT22;2043;52.184;8.690;2023-05-29T17:04:31;19.50;67.90
4056;DHT22;2043;52.184;8.690;2023-05-29T17:07:00;19.50;68.00
4056;DHT22;2043;52.184;8.690;2023-05-29T17:09:27;19.50;68.60
4056;DHT22;2043;52.184;8.690;2023-05-29T17:11:54;19.50;68.60
4056;DHT22;2043;52.184;8.690;2023-05-29T17:14:22;19.30;69.10
4056;DHT22;2043;52.184;8.690;2023-05-29T17:16:50;19.00;68.90
4056;DHT22;2043;52.184;8.690;2023-05-29T17:19:17;18.90;68.90
4056;DHT22;2043;52.184;8.690;2023-05-29T17:21:44;19.00;68.00
4056;DHT22;2043;52.184;8.690;2023-05-29T17:24:11;19.00;68.10
4056;DHT22;2043;52.184;8.690;2023-05-29T17:26:38;19.00;68.40
4056;DHT22;2043;52.184;8.690;2023-05-29T17:29:05;18.70;68.50
4056;DHT22;2043;52.184;8.690;2023-05-29T17:31:33;18.60;68.70
4056;DHT22;2043;52.184;8.690;2023-05-29T17:34:00;18.50;69.40
4056;DHT22;2043;52.184;8.690;2023-05-29T17:36:27;18.50;69.50
4056;DHT22;2043;52.184;8.690;2023-05-29T17:38:54;18.70;68.30
4056;DHT22;2043;52.184;8.690;2023-05-29T17:41:21;18.80;68.60
4056;DHT22;2043;52.184;8.690;2023-05-29T17:43:48;18.80;68.60
4056;DHT22;2043;52.184;8.690;2023-05-29T17:46:14;18.60;68.30
4056;DHT22;2043;52.184;8.690;2023-05-29T17:48:48;18.50;68.90
4056;DHT22;2043;52.184;8.690;2023-05-29T17:51:15;18.50;68.90
4056;DHT22;2043;52.184;8.690;2023-05-29T17:53:43;18.40;68.60
4056;DHT22;2043;52.184;8.690;2023-05-29T17:56:10;18.40;68.90
4056;DHT22;2043;52.184;8.690;2023-05-29T17:58:38;18.30;68.90
4056;DHT22;2043;52.184;8.690;2023-05-29T18:01:05;18.30;68.80
4056;DHT22;2043;52.184;8.690;2023-05-29T18:03:32;18.10;69.30
4056;DHT22;2043;52.184;8.690;2023-05-29T18:06:00;18.00;69.50
4056;DHT22;2043;52.184;8.690;2023-05-29T18:08:26;17.80;70.30
4056;DHT22;2043;52.184;8.690;2023-05-29T18:10:54;17.80;70.30
4056;DHT22;2043;52.184;8.690;2023-05-29T18:13:20;17.80;70.60
4056;DHT22;2043;52.184;8.690;2023-05-29T18:15:48;17.70;70.80
4056;DHT22;2043;52.184;8.690;2023-05-29T18:18:15;17.70;70.80
4056;DHT22;2043;52.184;8.690;2023-05-29T18:20:43;17.70;71.10
4056;DHT22;2043;52.184;8.690;2023-05-29T18:23:10;17.60;70.70
4056;DHT22;2043;52.184;8.690;2023-05-29T18:25:37;17.40;71.30
4056;DHT22;2043;52.184;8.690;2023-05-29T18:28:04;17.30;71.40
4056;DHT22;2043;52.184;8.690;2023-05-29T18:30:30;17.30;71.40
4056;DHT22;2043;52.184;8.690;2023-05-29T18:32:58;17.30;71.60
4056;DHT22;2043;52.184;8.690;2023-05-29T18:35:28;17.10;72.10
4056;DHT22;2043;52.184;8.690;2023-05-29T18:37:55;17.00;72.50
4056;DHT22;2043;52.184;8.690;2023-05-29T18:40:22;17.00;72.50